Impacts METAR Board
IDs:

KPHX - Phoenix/Sky Harbor, AZ, US

Updated at: 0700 UTC 24 Jun 2018
Potential Impact None Slight Moderate High
Time 23/19Z 23/20Z 23/21Z 23/22Z 23/23Z 24/00Z 24/01Z 24/02Z 24/03Z 24/04Z 24/05Z 24/06Z 24/07Z
Temp100 102 105 107 108 107 107 106 103 99 96 95 93
Dewpt39 39 39 38 38 41 42 43 45 46 48 49 47
Altim29.78 29.75 29.73 29.71 29.69 29.66 29.65 29.65 29.66 29.68 29.70 29.71 29.71
VIS10 10 10 10 10 10 10 10 10 10 10 10 10
CIG-- -- -- -- -- -- -- -- -- -- -- -- --
CoverCLRCLRCLRCLRCLRCLRCLRCLRFEWCLRCLRCLRCLR
FltCatVFRVFRVFRVFRVFRVFRVFRVFRVFRVFRVFRVFRVFR
WX--------------------------
WDir290270280210250240260290280260260270280
WSpd7 8 8 5 8 7 8 15 17 15 14 16 15
WGst-- -- -- -- 15 -- 19 -- -- -- -- -- --
Raw hourly METARs
KPHX 231851Z 29007KT 10SM CLR 38/04 A2978 RMK AO2 SLP059 T03780039 $
KPHX 231951Z 27008KT 10SM CLR 39/04 A2975 RMK AO2 SLP051 T03890039 $
KPHX 232051Z 28008KT 240V310 10SM CLR 41/04 A2973 RMK AO2 SLP045 T04060039 58018 $
KPHX 232151Z 21005KT 10SM CLR 42/03 A2971 RMK AO2 SLP036 T04170033 $
KPHX 232251Z 25008G15KT 10SM CLR 42/03 A2969 RMK AO2 SLP030 T04220033 $
KPHX 232351Z 24007KT 10SM CLR 42/05 A2966 RMK AO2 SLP021 T04170050 10428 20367 58024 $
KPHX 240051Z 26008G19KT 10SM CLR 42/06 A2965 RMK AO2 SLP016 T04170056 $
KPHX 240151Z 29015KT 10SM CLR 41/06 A2965 RMK AO2 SLP017 T04110061 $
KPHX 240251Z 28017KT 10SM FEW250 39/07 A2966 RMK AO2 SLP022 T03940072 53001 $
KPHX 240351Z 26015KT 10SM CLR 37/08 A2968 RMK AO2 SLP027 T03720078 $
KPHX 240451Z 26014KT 10SM CLR 36/09 A2970 RMK AO2 SLP034 T03560089 $
KPHX 240551Z 27016KT 10SM CLR 35/09 A2971 RMK AO2 SLP038 T03500094 10428 20344 51015 $
KPHX 240651Z 28015KT 10SM CLR 34/08 A2971 RMK AO2 SLP039 T03390083 404280283 $



Page loaded:  07:11 UTC  |   12:11 AM Pacific  |   01:11 AM Mountain  |   02:11 AM Central  |   03:11 AM Eastern

 

ADVISORIES

FORECASTS

FORECASTS

OBSERVATIONS

USER TOOLS

ABOUT US